Time;durP1;ratioP1;P1;durP2;ratioP2;P2;SDS_P1;SDS_P2;PMS_P1;PMS_P2;Temp;Humidity;BMP_temperature;BMP_pressure;BME280_temperature;BME280_humidity;BME280_pressure;Samples;Min_cycle;Max_cycle;Signal;HPM_P1;HPM_P2
2023/04/13 00:00:36;;;;;;;;;;;;;;;19.96;62.79;97726.88;2061429;28;20566;-45
2023/04/13 00:01:37;;;;;;;;;;;;;;;19.93;62.61;97730.84;2068301;28;19956;-47
2023/04/13 00:02:38;;;;;;;;;;;;;;;19.93;63.21;97732.72;2070061;28;19929;-50
2023/04/13 00:03:39;;;;;;;;;;;;;;;19.93;63.14;97728.16;2073606;28;20014;-50
2023/04/13 00:04:41;;;;;;;;;;;;;;;19.94;62.80;97721.72;2069967;28;19925;-49
2023/04/13 00:05:42;;;;;;;;;;;;;;;19.94;62.56;97718.22;2068836;28;19929;-54
2023/04/13 00:06:45;;;;;;;;;;;;;;;19.94;62.83;97713.63;2066908;28;19928;-50
2023/04/13 00:07:47;;;;;;;;;;;;;;;19.94;63.43;97716.31;2068756;28;20027;-50
2023/04/13 00:08:49;;;;;;;;;;;;;;;19.91;62.86;97710.59;2073230;28;19999;-48
2023/04/13 00:09:51;;;;;;;;;;;;;;;19.91;63.05;97699.84;2072939;28;19935;-50
2023/04/13 00:10:53;;;;;;;;;;;;;;;19.90;63.05;97696.34;2069730;28;19990;-52
2023/04/13 00:11:54;;;;;;;;;;;;;;;19.91;63.13;97700.66;2069828;28;21900;-47
2023/04/13 00:12:57;;;;;;;;;;;;;;;19.91;63.17;97697.16;2070349;28;19932;-48
2023/04/13 00:13:57;;;;;;;;;;;;;;;19.91;63.19;97692.56;2068833;28;19940;-54
2023/04/13 00:14:59;;;;;;;;;;;;;;;19.91;63.51;97691.75;2069238;28;19936;-47
2023/04/13 00:16:00;;;;;;;;;;;;;;;19.92;63.07;97691.53;2069244;28;20881;-48
2023/04/13 00:17:01;;;;;;;;;;;;;;;19.91;63.25;97689.88;2071171;28;20287;-47
2023/04/13 00:18:02;;;;;;;;;;;;;;;19.92;63.04;97691.53;2071555;28;20577;-49
2023/04/13 00:19:04;;;;;;;;;;;;;;;19.89;63.24;97685.78;2068558;28;19933;-51
2023/04/13 00:20:06;;;;;;;;;;;;;;;19.89;63.36;97681.22;2069774;28;19951;-50
2023/04/13 00:21:08;;;;;;;;;;;;;;;19.91;62.86;97684.50;2071979;28;19942;-50
2023/04/13 00:22:09;;;;;;;;;;;;;;;19.89;63.34;97683.09;2071637;28;20018;-49
2023/04/13 00:23:11;;;;;;;;;;;;;;;19.91;63.11;97681.00;2068739;28;19975;-48
2023/04/13 00:24:11;;;;;;;;;;;;;;;19.90;62.73;97682.06;2071926;28;19932;-49
2023/04/13 00:25:15;;;;;;;;;;;;;;;19.90;63.33;97682.06;2075366;28;19933;-45
2023/04/13 00:26:15;;;;;;;;;;;;;;;19.89;62.94;97680.41;2071712;28;19959;-51
2023/04/13 00:27:17;;;;;;;;;;;;;;;19.89;63.39;97678.53;2070711;28;19951;-47
2023/04/13 00:28:17;;;;;;;;;;;;;;;19.89;62.87;97675.84;2069734;28;19940;-49
2023/04/13 00:29:19;;;;;;;;;;;;;;;19.88;63.27;97670.72;2071366;28;21317;-50
2023/04/13 00:30:20;;;;;;;;;;;;;;;19.87;63.29;97667.22;2073131;28;20816;-49
2023/04/13 00:31:22;;;;;;;;;;;;;;;19.86;63.77;97668.25;2067952;28;21904;-46
2023/04/13 00:32:24;;;;;;;;;;;;;;;19.86;63.46;97666.41;2073065;28;20466;-49
2023/04/13 00:33:25;;;;;;;;;;;;;;;19.86;63.60;97670.94;2072546;28;19929;-51
2023/04/13 00:34:26;;;;;;;;;;;;;;;19.85;63.34;97680.88;2076151;28;20018;-47
2023/04/13 00:35:27;;;;;;;;;;;;;;;19.86;63.60;97677.16;2082279;28;19940;-49
2023/04/13 00:36:28;;;;;;;;;;;;;;;19.88;62.76;97684.16;2080825;28;20027;-49
2023/04/13 00:37:31;;;;;;;;;;;;;;;19.86;63.17;97676.31;2078889;28;22241;-49
2023/04/13 00:38:31;;;;;;;;;;;;;;;19.86;62.92;97681.69;2079767;28;19967;-48
2023/04/13 00:39:33;;;;;;;;;;;;;;;19.86;63.25;97674.47;2080404;28;20010;-49
2023/04/13 00:40:36;;;;;;;;;;;;;;;19.85;63.24;97675.50;2083120;28;19982;-51
2023/04/13 00:41:38;;;;;;;;;;;;;;;19.85;64.28;97670.13;2078944;28;20494;-48
2023/04/13 00:42:38;;;;;;;;;;;;;;;19.84;63.17;97668.50;2081601;28;20023;-46
2023/04/13 00:43:39;;;;;;;;;;;;;;;19.84;63.50;97663.13;2082139;28;19943;-46
2023/04/13 00:44:40;;;;;;;;;;;;;;;19.84;63.90;97662.28;2079886;28;20036;-52
2023/04/13 00:45:42;;;;;;;;;;;;;;;19.84;63.60;97652.34;2080343;28;19931;-52
2023/04/13 00:46:45;;;;;;;;;;;;;;;19.85;64.13;97662.03;2080545;28;20298;-47
2023/04/13 00:47:47;;;;;;;;;;;;;;;19.83;63.92;97653.38;2078364;28;20533;-45
2023/04/13 00:48:48;;;;;;;;;;;;;;;19.84;63.45;97652.34;2080646;28;20934;-47
2023/04/13 00:49:50;;;;;;;;;;;;;;;19.83;63.67;97648.00;2081812;28;19928;-50
2023/04/13 00:50:50;;;;;;;;;;;;;;;19.83;63.88;97645.31;2080536;28;19932;-52
2023/04/13 00:51:51;;;;;;;;;;;;;;;19.82;63.51;97653.63;2081896;28;20253;-49
2023/04/13 00:52:52;;;;;;;;;;;;;;;19.83;63.99;97648.00;2080167;28;19933;-46
2023/04/13 00:53:54;;;;;;;;;;;;;;;19.83;64.18;97644.50;2082594;28;19928;-50
2023/04/13 00:54:56;;;;;;;;;;;;;;;19.83;63.71;97644.50;2081682;28;20476;-47
2023/04/13 00:55:59;;;;;;;;;;;;;;;19.81;63.75;97642.06;2082454;28;19951;-49
2023/04/13 00:57:00;;;;;;;;;;;;;;;19.82;63.68;97643.69;2088587;28;20062;-46
2023/04/13 00:58:02;;;;;;;;;;;;;;;19.80;64.03;97642.28;2087593;28;20615;-44
2023/04/13 00:59:02;;;;;;;;;;;;;;;19.80;63.77;97643.09;2089052;28;19933;-48
2023/04/13 01:00:08;;;;;;;;;;;;;;;19.79;64.26;97644.16;2090771;28;19928;-48
2023/04/13 01:01:09;;;;;;;;;;;;;;;19.80;63.25;97644.97;2086618;28;19924;-47
2023/04/13 01:02:10;;;;;;;;;;;;;;;19.80;63.88;97634.22;2085734;28;19967;-49
2023/04/13 01:03:11;;;;;;;;;;;;;;;19.78;64.03;97634.47;2088953;28;19925;-47
2023/04/13 01:04:12;;;;;;;;;;;;;;;19.79;63.77;97633.41;2086962;28;19978;-47
2023/04/13 01:05:15;;;;;;;;;;;;;;;19.79;63.64;97627.19;2086141;28;19925;-50
2023/04/13 01:06:20;;;;;;;;;;;;;;;19.79;63.92;97628.00;2086514;28;20014;-50
2023/04/13 01:07:24;;;;;;;;;;;;;;;19.79;64.05;97627.19;2086340;28;19929;-49
2023/04/13 01:08:29;;;;;;;;;;;;;;;19.79;63.75;97632.59;2086863;28;19970;-46
2023/04/13 01:09:33;;;;;;;;;;;;;;;19.77;64.37;97635.50;2089442;28;20008;-47
2023/04/13 01:10:39;;;;;;;;;;;;;;;19.78;63.67;97629.09;2088229;28;20119;-51
2023/04/13 01:11:43;;;;;;;;;;;;;;;19.78;63.15;97626.38;2085478;28;19924;-48
2023/04/13 01:12:47;;;;;;;;;;;;;;;19.77;63.34;97622.03;2087770;28;20424;-48
2023/04/13 01:13:54;;;;;;;;;;;;;;;19.77;63.48;97630.13;2087540;28;20649;-51
2023/04/13 01:14:57;;;;;;;;;;;;;;;19.76;63.75;97624.97;2089232;28;19924;-53
2023/04/13 01:16:02;;;;;;;;;;;;;;;19.77;63.25;97629.31;2085741;28;19928;-48
2023/04/13 01:17:06;;;;;;;;;;;;;;;19.75;63.79;97620.63;2087218;28;19928;-45
2023/04/13 01:18:09;;;;;;;;;;;;;;;19.77;63.42;97622.03;2084156;28;20407;-48
2023/04/13 01:19:14;;;;;;;;;;;;;;;19.75;63.68;97608.03;2086221;28;19925;-52
2023/04/13 01:20:16;;;;;;;;;;;;;;;19.75;64.04;97610.72;2086504;28;19925;-50
2023/04/13 01:21:18;;;;;;;;;;;;;;;19.76;63.86;97608.84;2085495;28;19973;-49
2023/04/13 01:22:21;;;;;;;;;;;;;;;19.75;63.75;97609.88;2086995;28;19929;-48
2023/04/13 01:23:24;;;;;;;;;;;;;;;19.74;63.94;97606.38;2084101;28;20524;-47
2023/04/13 01:24:32;;;;;;;;;;;;;;;19.74;63.84;97608.25;2087952;28;19932;-49
2023/04/13 01:25:36;;;;;;;;;;;;;;;19.74;63.58;97611.75;2086157;28;20621;-45
2023/04/13 01:26:44;;;;;;;;;;;;;;;19.74;63.50;97603.69;2089434;28;19929;-51
2023/04/13 01:27:49;;;;;;;;;;;;;;;19.75;63.98;97605.34;2086166;28;20366;-48
2023/04/13 01:28:51;;;;;;;;;;;;;;;19.74;63.77;97602.88;2088644;28;20325;-49
2023/04/13 01:29:55;;;;;;;;;;;;;;;19.73;63.12;97602.06;2085069;28;19982;-46
2023/04/13 01:30:59;;;;;;;;;;;;;;;19.72;63.74;97594.22;2087932;28;20012;-50
2023/04/13 01:32:00;;;;;;;;;;;;;;;19.70;64.23;97589.09;2086871;28;19956;-49
2023/04/13 01:33:02;;;;;;;;;;;;;;;19.70;64.33;97586.38;2086267;28;20008;-49
2023/04/13 01:34:03;;;;;;;;;;;;;;;19.71;64.13;97573.75;2086904;28;19955;-45
2023/04/13 01:35:09;;;;;;;;;;;;;;;19.71;63.34;97571.88;2085221;28;19967;-45
2023/04/13 01:36:10;;;;;;;;;;;;;;;19.71;63.79;97576.44;2086809;28;19928;-49
2023/04/13 01:37:12;;;;;;;;;;;;;;;19.71;63.56;97576.44;2086973;28;19929;-44
2023/04/13 01:38:13;;;;;;;;;;;;;;;19.72;63.54;97578.88;2086459;28;19946;-49
2023/04/13 01:39:18;;;;;;;;;;;;;;;19.71;63.36;97573.75;2086666;28;20276;-50
2023/04/13 01:40:19;;;;;;;;;;;;;;;19.70;63.17;97570.25;2084872;28;20692;-47
2023/04/13 01:41:20;;;;;;;;;;;;;;;19.70;63.27;97572.94;2086237;28;19951;-51
2023/04/13 01:42:21;;;;;;;;;;;;;;;19.71;63.56;97560.31;2084597;28;19981;-44
2023/04/13 01:43:25;;;;;;;;;;;;;;;19.70;62.81;97559.50;2085966;28;20022;-51
2023/04/13 01:44:26;;;;;;;;;;;;;;;19.70;63.46;97556.78;2076354;28;20590;-47
2023/04/13 01:45:29;;;;;;;;;;;;;;;19.70;63.94;97559.50;2076133;28;20288;-47
2023/04/13 01:46:33;;;;;;;;;;;;;;;19.68;64.42;97556.22;2075430;28;20025;-48
2023/04/13 01:47:34;;;;;;;;;;;;;;;19.70;62.99;97554.09;2078550;28;21526;-48
2023/04/13 01:48:38;;;;;;;;;;;;;;;19.69;63.42;97552.44;2078039;28;19982;-48
2023/04/13 01:49:40;;;;;;;;;;;;;;;19.70;63.51;97550.59;2076960;28;20345;-47
2023/04/13 01:50:42;;;;;;;;;;;;;;;19.69;64.07;97548.94;2075997;28;21269;-49
2023/04/13 01:51:45;;;;;;;;;;;;;;;19.68;64.00;97539.25;2076751;28;19968;-47
2023/04/13 01:52:46;;;;;;;;;;;;;;;19.68;63.26;97545.44;2077550;28;19940;-48
2023/04/13 01:53:52;;;;;;;;;;;;;;;19.68;63.63;97537.38;2078756;28;19938;-48
2023/04/13 01:54:55;;;;;;;;;;;;;;;19.67;63.84;97532.22;2077435;28;19924;-48
2023/04/13 01:55:56;;;;;;;;;;;;;;;19.64;64.25;97533.50;2080287;28;20913;-45
2023/04/13 01:56:58;;;;;;;;;;;;;;;19.67;63.29;97543.81;2087903;28;19932;-52
2023/04/13 01:58:00;;;;;;;;;;;;;;;19.65;63.35;97535.13;2085659;28;19968;-47
2023/04/13 01:59:02;;;;;;;;;;;;;;;19.65;63.02;97529.75;2084341;28;20019;-45
2023/04/13 02:00:09;;;;;;;;;;;;;;;19.65;63.19;97529.75;2084803;28;19929;-52
2023/04/13 02:01:11;;;;;;;;;;;;;;;19.66;64.02;97531.41;2077230;28;20015;-48
2023/04/13 02:02:15;;;;;;;;;;;;;;;19.63;63.42;97527.28;2076861;28;19932;-50
2023/04/13 02:03:16;;;;;;;;;;;;;;;19.64;63.28;97537.00;2079012;28;19932;-52
2023/04/13 02:04:18;;;;;;;;;;;;;;;19.63;62.74;97532.66;2079513;28;19935;-51
2023/04/13 02:05:19;;;;;;;;;;;;;;;19.63;63.16;97537.25;2077006;28;19928;-49
2023/04/13 02:06:20;;;;;;;;;;;;;;;19.63;63.31;97532.66;2077681;28;20019;-48
2023/04/13 02:07:22;;;;;;;;;;;;;;;19.64;63.24;97541.59;2077696;28;19932;-48
2023/04/13 02:08:26;;;;;;;;;;;;;;;19.64;62.71;97539.69;2078269;28;19939;-49
2023/04/13 02:09:27;;;;;;;;;;;;;;;19.63;63.16;97543.44;2078502;28;20671;-50
2023/04/13 02:10:28;;;;;;;;;;;;;;;19.65;63.16;97545.91;2077527;28;19940;-47
2023/04/13 02:11:29;;;;;;;;;;;;;;;19.64;62.80;97549.66;2079228;28;21967;-44
2023/04/13 02:12:31;;;;;;;;;;;;;;;19.65;63.22;97553.97;2079246;28;19986;-49
2023/04/13 02:13:32;;;;;;;;;;;;;;;19.66;62.79;97552.13;2083461;28;20385;-48
2023/04/13 02:14:34;;;;;;;;;;;;;;;19.64;63.07;97549.66;2075862;28;19979;-48
2023/04/13 02:15:36;;;;;;;;;;;;;;;19.62;63.65;97544.50;2078247;28;21962;-46
2023/04/13 02:16:37;;;;;;;;;;;;;;;19.63;63.33;97550.69;2078894;28;20323;-46
2023/04/13 02:17:38;;;;;;;;;;;;;;;19.62;63.45;97551.75;2075971;28;20391;-48
2023/04/13 02:18:39;;;;;;;;;;;;;;;19.61;63.87;97544.72;2076437;28;20039;-46
2023/04/13 02:19:40;;;;;;;;;;;;;;;19.61;64.04;97558.16;2076615;28;20067;-49
2023/04/13 02:20:44;;;;;;;;;;;;;;;19.61;62.99;97550.09;2078416;28;19945;-47
2023/04/13 02:21:45;;;;;;;;;;;;;;;19.60;63.30;97543.91;2076054;28;20849;-51
2023/04/13 02:22:46;;;;;;;;;;;;;;;19.61;63.03;97558.16;2077078;28;19940;-48
2023/04/13 02:23:47;;;;;;;;;;;;;;;19.60;63.34;97548.47;2079369;28;20011;-47
2023/04/13 02:24:49;;;;;;;;;;;;;;;19.60;62.99;97548.47;2076485;28;19928;-49
2023/04/13 02:25:49;;;;;;;;;;;;;;;19.61;63.52;97550.09;2079418;28;19951;-48
2023/04/13 02:26:50;;;;;;;;;;;;;;;19.59;63.28;97541.47;2076169;28;19935;-50
2023/04/13 02:27:51;;;;;;;;;;;;;;;19.59;63.02;97541.47;2074093;28;19925;-50
2023/04/13 02:28:52;;;;;;;;;;;;;;;19.59;62.92;97533.41;2077343;28;19928;-47
2023/04/13 02:29:55;;;;;;;;;;;;;;;19.58;63.36;97532.56;2080224;28;20575;-46
2023/04/13 02:30:58;;;;;;;;;;;;;;;19.59;63.45;97530.72;2079045;28;19933;-47
2023/04/13 02:31:59;;;;;;;;;;;;;;;19.57;63.66;97528.25;2079582;28;19932;-53
2023/04/13 02:33:00;;;;;;;;;;;;;;;19.57;63.74;97530.94;2076924;28;20019;-51
2023/04/13 02:34:01;;;;;;;;;;;;;;;19.56;63.33;97525.81;2076146;28;19929;-51
2023/04/13 02:35:03;;;;;;;;;;;;;;;19.56;63.17;97531.19;2077775;28;20007;-47
2023/04/13 02:36:04;;;;;;;;;;;;;;;19.56;63.02;97529.31;2078450;28;19925;-47
2023/04/13 02:37:08;;;;;;;;;;;;;;;19.56;63.36;97531.19;2076540;28;20483;-50
2023/04/13 02:38:09;;;;;;;;;;;;;;;19.55;63.20;97529.53;2079102;28;19925;-50
2023/04/13 02:39:11;;;;;;;;;;;;;;;19.54;63.69;97527.91;2077952;28;20477;-46
2023/04/13 02:40:11;;;;;;;;;;;;;;;19.54;63.52;97527.91;2079710;28;20055;-50
2023/04/13 02:41:13;;;;;;;;;;;;;;;19.55;63.54;97524.16;2077253;28;19940;-45
2023/04/13 02:42:13;;;;;;;;;;;;;;;19.56;63.11;97521.25;2077134;28;19941;-49
2023/04/13 02:43:15;;;;;;;;;;;;;;;19.55;63.28;97518.78;2078940;28;19933;-48
2023/04/13 02:44:15;;;;;;;;;;;;;;;19.53;63.73;97516.34;2082286;28;19932;-50
2023/04/13 02:45:18;;;;;;;;;;;;;;;19.51;64.00;97507.69;2080291;28;19933;-47
2023/04/13 02:46:19;;;;;;;;;;;;;;;19.50;63.77;97507.91;2077514;28;19940;-44
2023/04/13 02:47:21;;;;;;;;;;;;;;;19.51;63.48;97506.88;2074027;28;21839;-50
2023/04/13 02:48:21;;;;;;;;;;;;;;;19.51;63.79;97506.88;2074988;28;19936;-50
2023/04/13 02:49:22;;;;;;;;;;;;;;;19.52;63.78;97508.50;2076886;28;20067;-46
2023/04/13 02:50:23;;;;;;;;;;;;;;;19.51;63.51;97510.38;2076525;28;19952;-48
2023/04/13 02:51:26;;;;;;;;;;;;;;;19.51;63.64;97502.28;2077135;28;19932;-49
2023/04/13 02:52:26;;;;;;;;;;;;;;;19.50;63.83;97502.53;2077201;28;19989;-50
2023/04/13 02:53:28;;;;;;;;;;;;;;;19.48;63.63;97499.28;2079241;28;20527;-46
2023/04/13 02:54:28;;;;;;;;;;;;;;;19.47;63.90;97495.75;2079054;28;19956;-49
2023/04/13 02:55:30;;;;;;;;;;;;;;;19.49;63.50;97492.84;2079262;28;20264;-46
2023/04/13 02:56:30;;;;;;;;;;;;;;;19.49;63.94;97492.84;2077858;28;20466;-51
2023/04/13 02:57:33;;;;;;;;;;;;;;;19.48;63.48;97492.03;2080428;28;19928;-46
2023/04/13 02:58:33;;;;;;;;;;;;;;;19.48;63.77;97488.53;2086183;28;19945;-50
2023/04/13 02:59:34;;;;;;;;;;;;;;;19.48;63.63;97480.44;2085417;28;20362;-51
2023/04/13 03:00:37;;;;;;;;;;;;;;;19.48;63.87;97483.13;2090207;28;19962;-48
2023/04/13 03:01:40;;;;;;;;;;;;;;;19.47;63.62;97476.09;2084942;28;19976;-50
2023/04/13 03:02:41;;;;;;;;;;;;;;;19.48;63.68;97477.75;2086746;28;19950;-47
2023/04/13 03:03:42;;;;;;;;;;;;;;;19.47;63.81;97478.78;2087759;28;19928;-45
2023/04/13 03:04:43;;;;;;;;;;;;;;;19.47;63.84;97473.41;2088544;28;20012;-46
2023/04/13 03:05:44;;;;;;;;;;;;;;;19.46;63.81;97469.91;2087940;28;19983;-47
2023/04/13 03:06:46;;;;;;;;;;;;;;;19.46;63.76;97466.41;2086296;28;20015;-46
2023/04/13 03:07:47;;;;;;;;;;;;;;;19.46;64.16;97469.09;2087136;28;19964;-50
2023/04/13 03:08:50;;;;;;;;;;;;;;;19.47;63.75;97468.03;2085220;28;20338;-46
2023/04/13 03:09:51;;;;;;;;;;;;;;;19.46;64.02;97471.78;2087928;28;19924;-47
2023/04/13 03:10:53;;;;;;;;;;;;;;;19.43;63.87;97468.53;2086612;28;20607;-49
2023/04/13 03:11:55;;;;;;;;;;;;;;;19.47;63.59;97468.03;2087267;28;19935;-48
2023/04/13 03:12:55;;;;;;;;;;;;;;;19.46;63.70;97469.09;2087131;28;20031;-45
2023/04/13 03:13:57;;;;;;;;;;;;;;;19.46;64.20;97477.16;2086216;28;19958;-46
2023/04/13 03:15:00;;;;;;;;;;;;;;;19.45;63.97;97470.16;2086694;28;19982;-51
2023/04/13 03:16:03;;;;;;;;;;;;;;;19.45;64.26;97473.66;2086303;28;19935;-49
2023/04/13 03:17:05;;;;;;;;;;;;;;;19.46;63.53;97471.78;2087462;28;19924;-50
2023/04/13 03:18:07;;;;;;;;;;;;;;;19.46;63.98;97471.78;2086902;28;20383;-47
2023/04/13 03:19:07;;;;;;;;;;;;;;;19.45;63.94;97470.97;2088775;28;19924;-53
2023/04/13 03:20:11;;;;;;;;;;;;;;;19.43;63.91;97463.13;2090178;28;19925;-48
2023/04/13 03:21:12;;;;;;;;;;;;;;;19.43;64.14;97456.94;2087701;28;20273;-46
2023/04/13 03:22:14;;;;;;;;;;;;;;;19.45;63.66;97454.03;2089752;28;20023;-47
2023/04/13 03:23:15;;;;;;;;;;;;;;;19.45;63.55;97451.34;2088828;28;20336;-45
2023/04/13 03:24:16;;;;;;;;;;;;;;;19.42;64.06;97452.63;2087377;28;19967;-50
2023/04/13 03:25:17;;;;;;;;;;;;;;;19.42;63.75;97453.44;2088119;28;20276;-47
2023/04/13 03:26:18;;;;;;;;;;;;;;;19.42;63.77;97456.13;2090071;28;19985;-45
2023/04/13 03:27:20;;;;;;;;;;;;;;;19.41;64.09;97451.78;2088322;28;20556;-49
2023/04/13 03:28:22;;;;;;;;;;;;;;;19.41;63.82;97449.09;2080855;28;19970;-46
2023/04/13 03:29:23;;;;;;;;;;;;;;;19.41;63.81;97449.09;2076410;28;19937;-48
2023/04/13 03:30:24;;;;;;;;;;;;;;;19.42;64.09;97449.94;2072485;28;19928;-48
2023/04/13 03:31:26;;;;;;;;;;;;;;;19.40;63.73;97455.56;2075384;28;19936;-47
2023/04/13 03:32:27;;;;;;;;;;;;;;;19.41;64.50;97451.78;2074039;28;19948;-51
2023/04/13 03:33:28;;;;;;;;;;;;;;;19.40;64.42;97444.78;2071232;28;19941;-50
2023/04/13 03:34:29;;;;;;;;;;;;;;;19.40;64.57;97442.09;2072634;28;20513;-50
2023/04/13 03:35:30;;;;;;;;;;;;;;;19.40;64.81;97442.09;2073546;28;19932;-51
2023/04/13 03:36:31;;;;;;;;;;;;;;;19.42;64.90;97434.63;2080354;28;23821;-49
2023/04/13 03:37:39;;;;;;;;;;;;;;;19.42;65.05;97442.69;2080294;28;20543;-45
2023/04/13 03:38:40;;;;;;;;;;;;;;;19.45;65.20;97441.41;2082456;28;19961;-48
2023/04/13 03:39:41;;;;;;;;;;;;;;;19.45;64.76;97430.66;2082031;28;19928;-47
2023/04/13 03:40:42;;;;;;;;;;;;;;;19.50;65.11;97432.59;2085277;28;19937;-48
2023/04/13 03:41:43;;;;;;;;;;;;;;;19.51;65.32;97436.94;2087862;28;19932;-46
2023/04/13 03:42:44;;;;;;;;;;;;;;;19.54;65.24;97439.16;2087218;28;19933;-49
2023/04/13 03:43:45;;;;;;;;;;;;;;;19.57;65.05;97430.59;2081778;28;19985;-48
2023/04/13 03:44:46;;;;;;;;;;;;;;;19.59;64.73;97426.63;2081558;28;20935;-48
2023/04/13 03:45:47;;;;;;;;;;;;;;;19.61;64.69;97426.38;2081946;28;19983;-52
2023/04/13 03:46:50;;;;;;;;;;;;;;;19.66;64.73;97426.50;2085293;28;20294;-49
2023/04/13 03:47:51;;;;;;;;;;;;;;;19.67;64.36;97425.47;2081467;28;19928;-53
2023/04/13 03:48:52;;;;;;;;;;;;;;;19.68;64.80;97419.00;2075330;28;19928;-48
2023/04/13 03:49:53;;;;;;;;;;;;;;;19.72;64.75;97416.66;2070722;28;19978;-46
2023/04/13 03:50:55;;;;;;;;;;;;;;;19.72;64.85;97417.47;2072014;28;19928;-51
2023/04/13 03:51:55;;;;;;;;;;;;;;;19.74;64.41;97414.56;2069961;28;19939;-51
2023/04/13 03:52:56;;;;;;;;;;;;;;;19.74;64.01;97409.97;2071797;28;19959;-47
2023/04/13 03:53:57;;;;;;;;;;;;;;;19.77;64.86;97414.06;2074694;28;19968;-49
2023/04/13 03:54:59;;;;;;;;;;;;;;;19.78;64.52;97411.16;2078992;28;20447;-51
2023/04/13 03:55:59;;;;;;;;;;;;;;;19.77;64.37;97409.50;2072619;28;19937;-48
2023/04/13 03:57:03;;;;;;;;;;;;;;;19.79;64.65;97412.78;2072070;28;19929;-46
2023/04/13 03:58:04;;;;;;;;;;;;;;;19.80;64.41;97409.00;2070709;28;19925;-48
2023/04/13 03:59:05;;;;;;;;;;;;;;;19.81;64.52;97407.16;2071375;28;19933;-46
2023/04/13 04:00:10;;;;;;;;;;;;;;;19.83;64.46;97407.72;2071445;28;19936;-47
2023/04/13 04:01:12;;;;;;;;;;;;;;;19.83;64.38;97405.84;2079084;28;19929;-49
2023/04/13 04:02:15;;;;;;;;;;;;;;;19.86;64.46;97404.53;2083021;28;19963;-47
2023/04/13 04:03:17;;;;;;;;;;;;;;;19.88;64.05;97410.50;2080496;28;19940;-47
2023/04/13 04:04:17;;;;;;;;;;;;;;;19.89;64.29;97417.50;2078437;28;19939;-47
2023/04/13 04:05:19;;;;;;;;;;;;;;;19.89;64.43;97416.69;2079919;28;20526;-50
2023/04/13 04:06:19;;;;;;;;;;;;;;;19.92;64.31;97424.28;2079157;28;19950;-49
2023/04/13 04:07:22;;;;;;;;;;;;;;;19.92;64.14;97421.59;2079394;28;19932;-49
2023/04/13 04:08:22;;;;;;;;;;;;;;;19.90;64.57;97416.47;2079298;28;19936;-49
2023/04/13 04:09:25;;;;;;;;;;;;;;;19.92;64.30;97416.22;2080053;28;20013;-45
2023/04/13 04:10:26;;;;;;;;;;;;;;;19.92;64.66;97421.59;2081258;28;20031;-51
2023/04/13 04:11:27;;;;;;;;;;;;;;;19.92;64.59;97429.66;2078979;28;20458;-49
2023/04/13 04:12:28;;;;;;;;;;;;;;;19.91;64.53;97428.84;2079288;28;19933;-45
2023/04/13 04:13:29;;;;;;;;;;;;;;;19.92;64.65;97425.13;2080356;28;19990;-53
2023/04/13 04:14:29;;;;;;;;;;;;;;;19.92;64.31;97422.44;2081316;28;19972;-44
2023/04/13 04:15:31;;;;;;;;;;;;;;;19.94;64.79;97427.56;2079051;28;19929;-50
2023/04/13 04:16:32;;;;;;;;;;;;;;;19.93;64.14;97415.97;2078938;28;20532;-46
2023/04/13 04:17:35;;;;;;;;;;;;;;;19.95;64.04;97419.25;2083063;28;19925;-44
2023/04/13 04:18:35;;;;;;;;;;;;;;;19.96;64.68;97414.69;2076407;28;20382;-47
2023/04/13 04:19:37;;;;;;;;;;;;;;;20.00;64.08;97416.66;2076481;28;19986;-45
2023/04/13 04:20:37;;;;;;;;;;;;;;;20.05;63.93;97415.91;2079074;28;19932;-49
2023/04/13 04:21:45;;;;;;;;;;;;;;;20.11;63.10;97414.94;2077875;28;20132;-48
2023/04/13 04:22:46;;;;;;;;;;;;;;;20.09;63.00;97417.09;2077075;28;19959;-45
2023/04/13 04:23:47;;;;;;;;;;;;;;;20.06;63.29;97412.19;2080113;28;20658;-48
2023/04/13 04:24:49;;;;;;;;;;;;;;;20.07;63.03;97417.31;2076485;28;19932;-50
2023/04/13 04:25:51;;;;;;;;;;;;;;;20.05;63.45;97416.72;2079819;28;19932;-50
2023/04/13 04:26:53;;;;;;;;;;;;;;;20.05;62.95;97424.00;2079776;28;19928;-50
2023/04/13 04:27:56;;;;;;;;;;;;;;;20.02;63.22;97411.03;2080933;28;20003;-51
2023/04/13 04:29:00;;;;;;;;;;;;;;;20.01;63.17;97414.78;2080093;28;19929;-50
2023/04/13 04:30:03;;;;;;;;;;;;;;;20.00;62.93;97411.28;2081306;28;19929;-49
2023/04/13 04:31:05;;;;;;;;;;;;;;;20.00;63.19;97413.13;2079341;28;20446;-46
2023/04/13 04:32:09;;;;;;;;;;;;;;;19.99;62.85;97416.88;2072990;28;19983;-49
2023/04/13 04:33:13;;;;;;;;;;;;;;;19.98;62.91;97415.28;2083911;28;19925;-47
2023/04/13 04:34:15;;;;;;;;;;;;;;;19.97;63.04;97410.94;2077244;28;19932;-49
2023/04/13 04:35:16;;;;;;;;;;;;;;;19.97;63.40;97414.44;2072903;28;28946;-53
2023/04/13 04:36:19;;;;;;;;;;;;;;;19.97;62.97;97416.31;2075095;28;20031;-50
2023/04/13 04:37:20;;;;;;;;;;;;;;;19.96;63.00;97414.69;2073667;28;19932;-50
2023/04/13 04:38:22;;;;;;;;;;;;;;;19.95;63.27;97408.50;2080264;28;20595;-50
2023/04/13 04:39:23;;;;;;;;;;;;;;;19.95;62.87;97413.06;2075048;28;19984;-51
2023/04/13 04:40:24;;;;;;;;;;;;;;;19.95;62.92;97407.69;2077693;28;19941;-50
2023/04/13 04:41:25;;;;;;;;;;;;;;;20.01;63.38;97409.41;2077924;28;20462;-51
2023/04/13 04:42:26;;;;;;;;;;;;;;;20.11;63.26;97404.16;2077336;28;19932;-48
2023/04/13 04:43:28;;;;;;;;;;;;;;;20.14;62.67;97409.06;2075091;28;21046;-50
2023/04/13 04:44:30;;;;;;;;;;;;;;;20.14;62.87;97401.00;2078934;28;20091;-48
2023/04/13 04:45:31;;;;;;;;;;;;;;;20.09;62.68;97398.25;2075616;28;19943;-49
2023/04/13 04:46:36;;;;;;;;;;;;;;;20.06;62.71;97404.13;2082122;28;19928;-50
2023/04/13 04:47:42;;;;;;;;;;;;;;;20.03;62.93;97404.56;2076729;28;20488;-48
2023/04/13 04:48:46;;;;;;;;;;;;;;;20.01;62.86;97402.13;2087162;28;19974;-48
2023/04/13 04:49:46;;;;;;;;;;;;;;;19.99;63.04;97398.88;2077711;28;19932;-48
2023/04/13 04:50:48;;;;;;;;;;;;;;;19.99;62.69;97406.13;2080437;28;19928;-47
2023/04/13 04:51:50;;;;;;;;;;;;;;;19.98;62.79;97401.81;2077243;28;19939;-49
2023/04/13 04:52:52;;;;;;;;;;;;;;;19.97;62.79;97405.53;2078601;28;19940;-45
2023/04/13 04:53:52;;;;;;;;;;;;;;;19.95;62.98;97396.91;2077279;28;19978;-48
2023/04/13 04:54:54;;;;;;;;;;;;;;;19.94;63.17;97404.16;2077355;28;19977;-51
2023/04/13 04:55:54;;;;;;;;;;;;;;;19.98;62.93;97388.34;2076827;28;20044;-48
2023/04/13 04:56:56;;;;;;;;;;;;;;;19.98;62.88;97394.56;2078098;28;19989;-49
2023/04/13 04:57:57;;;;;;;;;;;;;;;19.95;62.69;97389.66;2080731;28;19933;-46
2023/04/13 04:58:58;;;;;;;;;;;;;;;19.94;62.58;97393.38;2079234;28;20028;-48
2023/04/13 05:00:00;;;;;;;;;;;;;;;19.91;62.66;97385.00;2076320;28;19939;-51
2023/04/13 05:01:01;;;;;;;;;;;;;;;19.90;62.67;97388.75;2075680;28;19938;-50
2023/04/13 05:02:01;;;;;;;;;;;;;;;19.90;62.58;97389.56;2077550;28;20020;-48
2023/04/13 05:03:03;;;;;;;;;;;;;;;19.90;63.00;97383.38;2078801;28;19939;-50
2023/04/13 05:04:06;;;;;;;;;;;;;;;19.90;62.82;97386.88;2083692;28;19929;-47
2023/04/13 05:05:08;;;;;;;;;;;;;;;19.90;62.83;97391.44;2077680;28;20319;-48
2023/04/13 05:06:09;;;;;;;;;;;;;;;19.88;62.81;97388.16;2076883;28;20055;-52
2023/04/13 05:07:10;;;;;;;;;;;;;;;19.89;62.85;97385.22;2080344;28;19928;-49
2023/04/13 05:08:12;;;;;;;;;;;;;;;19.89;62.89;97397.88;2080134;28;19928;-49
2023/04/13 05:09:13;;;;;;;;;;;;;;;19.86;62.81;97394.63;2080345;28;20019;-51
2023/04/13 05:10:15;;;;;;;;;;;;;;;19.86;63.00;97401.84;2081352;28;19936;-50
2023/04/13 05:11:15;;;;;;;;;;;;;;;19.86;63.04;97393.78;2078685;28;19963;-48
2023/04/13 05:12:17;;;;;;;;;;;;;;;19.88;62.77;97405.13;2078827;28;19933;-48
2023/04/13 05:13:17;;;;;;;;;;;;;;;19.87;62.83;97406.19;2080025;28;20943;-49
2023/04/13 05:14:19;;;;;;;;;;;;;;;19.88;62.93;97409.69;2080221;28;19939;-48
2023/04/13 05:15:20;;;;;;;;;;;;;;;19.85;62.69;97409.13;2075816;28;19929;-49
2023/04/13 05:16:21;;;;;;;;;;;;;;;19.93;62.37;97405.22;2073234;28;20575;-49
2023/04/13 05:17:24;;;;;;;;;;;;;;;20.01;62.17;97409.41;2074295;28;20326;-48
2023/04/13 05:18:26;;;;;;;;;;;;;;;20.11;61.20;97412.25;2075635;28;19932;-46
2023/04/13 05:19:27;;;;;;;;;;;;;;;20.16;60.78;97415.03;2077674;28;19924;-47
2023/04/13 05:20:29;;;;;;;;;;;;;;;20.21;60.45;97415.13;2080841;28;20896;-48
2023/04/13 05:21:29;;;;;;;;;;;;;;;20.19;60.43;97419.94;2073250;28;19928;-48
2023/04/13 05:22:31;;;;;;;;;;;;;;;20.17;60.09;97414.00;2080548;28;20349;-48